createdAt,value
2023-01-26T00:01:24.678Z,16.10
2023-01-26T00:03:56.094Z,16.00
2023-01-26T00:06:30.240Z,16.10
2023-01-26T00:09:00.911Z,16.10
2023-01-26T00:11:32.344Z,16.10
2023-01-26T00:14:03.545Z,16.10
2023-01-26T00:16:43.377Z,16.00
2023-01-26T00:19:18.063Z,16.00
2023-01-26T00:21:46.343Z,15.90
2023-01-26T00:24:17.630Z,15.90
2023-01-26T00:26:49.069Z,15.80
2023-01-26T00:29:18.077Z,15.80
2023-01-26T00:31:47.972Z,15.70
2023-01-26T00:34:16.927Z,15.70
2023-01-26T00:36:49.421Z,15.70
2023-01-26T00:39:27.133Z,15.60
2023-01-26T00:42:16.879Z,15.60
2023-01-26T00:44:45.067Z,15.60
2023-01-26T00:47:16.497Z,15.50
2023-01-26T00:49:45.157Z,15.50
2023-01-26T00:52:16.921Z,15.50
2023-01-26T00:57:28.475Z,15.40
2023-01-26T00:59:58.244Z,15.40
2023-01-26T01:02:28.717Z,15.40
2023-01-26T01:04:59.605Z,15.40
2023-01-26T01:07:30.098Z,15.40
2023-01-26T01:10:03.266Z,15.30
2023-01-26T01:15:18.710Z,15.30
2023-01-26T01:17:49.505Z,15.30
2023-01-26T01:20:18.679Z,15.30
2023-01-26T01:22:49.938Z,15.30
2023-01-26T01:25:20.624Z,15.20
2023-01-26T01:27:51.671Z,15.20
2023-01-26T01:30:21.892Z,15.20
2023-01-26T01:32:54.597Z,15.20
2023-01-26T01:35:24.678Z,15.20
2023-01-26T01:37:54.949Z,15.20
2023-01-26T01:40:26.166Z,15.20
2023-01-26T01:42:56.591Z,15.20
2023-01-26T01:46:00.779Z,15.20
2023-01-26T01:49:07.073Z,15.10
2023-01-26T01:51:48.483Z,15.10
2023-01-26T01:54:21.709Z,15.10
2023-01-26T01:57:05.336Z,15.10
2023-01-26T01:59:35.758Z,15.10
2023-01-26T02:02:03.925Z,15.10
2023-01-26T02:04:34.265Z,15.10
2023-01-26T02:07:03.173Z,15.10
2023-01-26T02:09:57.399Z,15.10
2023-01-26T02:12:30.331Z,15.10
2023-01-26T02:15:00.976Z,15.10
2023-01-26T02:17:35.427Z,15.00
2023-01-26T02:20:28.871Z,15.00
2023-01-26T02:23:22.566Z,15.10
2023-01-26T02:26:22.089Z,15.00
2023-01-26T02:28:51.451Z,15.10
2023-01-26T02:31:23.349Z,15.00
2023-01-26T02:33:57.703Z,15.00
2023-01-26T02:36:29.057Z,15.00
2023-01-26T02:39:39.197Z,15.00
2023-01-26T02:42:30.134Z,15.00
2023-01-26T02:45:00.362Z,15.00
2023-01-26T02:47:28.513Z,15.00
2023-01-26T02:50:00.316Z,15.00
2023-01-26T02:52:34.833Z,15.00
2023-01-26T02:55:23.795Z,15.00
2023-01-26T02:58:03.557Z,14.90
2023-01-26T03:00:44.714Z,15.00
2023-01-26T03:03:18.126Z,15.00
2023-01-26T03:05:48.892Z,15.00
2023-01-26T03:08:23.429Z,15.00
2023-01-26T03:10:54.804Z,15.00
2023-01-26T03:13:24.945Z,15.00
2023-01-26T03:15:57.890Z,15.00
2023-01-26T03:18:44.410Z,14.90
2023-01-26T03:21:39.073Z,15.00
2023-01-26T03:24:34.145Z,14.90
2023-01-26T03:27:24.168Z,14.90
2023-01-26T03:29:56.406Z,15.00
2023-01-26T03:32:28.697Z,14.90
2023-01-26T03:34:56.630Z,15.00
2023-01-26T03:37:26.388Z,15.00
2023-01-26T03:40:14.289Z,14.90
2023-01-26T03:43:04.101Z,14.90
2023-01-26T03:45:52.494Z,14.90
2023-01-26T03:48:42.108Z,14.90
2023-01-26T03:51:31.391Z,14.90
2023-01-26T03:54:18.840Z,14.90
2023-01-26T03:56:50.129Z,14.90
2023-01-26T03:59:42.105Z,14.90
2023-01-26T04:02:33.112Z,14.90
2023-01-26T04:05:42.801Z,14.90
2023-01-26T04:08:22.429Z,14.90
2023-01-26T04:10:54.510Z,14.90
2023-01-26T04:13:47.719Z,14.90
2023-01-26T04:16:38.451Z,14.90
2023-01-26T04:19:29.069Z,14.80
2023-01-26T04:22:03.370Z,14.80
2023-01-26T04:24:36.778Z,14.80
2023-01-26T04:27:07.141Z,14.90
2023-01-26T04:29:35.024Z,14.80
2023-01-26T04:32:05.778Z,14.80
2023-01-26T04:34:35.603Z,14.80
2023-01-26T04:37:06.296Z,14.80
2023-01-26T04:39:36.553Z,14.80
2023-01-26T04:42:06.307Z,14.80
2023-01-26T04:44:37.735Z,14.80
2023-01-26T04:47:08.504Z,14.80
2023-01-26T04:49:39.034Z,14.80
2023-01-26T04:52:08.371Z,14.80
2023-01-26T04:54:38.637Z,14.80
2023-01-26T04:57:09.614Z,14.80
2023-01-26T04:59:41.044Z,14.80
2023-01-26T05:02:14.404Z,14.80
2023-01-26T05:04:43.685Z,14.80
2023-01-26T05:07:13.977Z,14.80
2023-01-26T05:09:44.009Z,14.80
2023-01-26T05:12:32.013Z,14.80
2023-01-26T05:15:04.439Z,14.80
2023-01-26T05:17:34.378Z,14.80
2023-01-26T05:20:33.437Z,14.70
2023-01-26T05:23:03.716Z,14.80
2023-01-26T05:25:35.534Z,14.70
2023-01-26T05:28:05.764Z,14.80
2023-01-26T05:30:37.185Z,14.80
2023-01-26T05:36:09.080Z,14.80
2023-01-26T05:38:41.010Z,14.70
2023-01-26T05:41:13.576Z,14.80
2023-01-26T05:43:44.091Z,14.80
2023-01-26T05:46:15.549Z,14.80
2023-01-26T05:48:45.738Z,14.80
2023-01-26T05:51:17.354Z,14.90
2023-01-26T05:53:48.134Z,14.90
2023-01-26T05:56:17.300Z,15.00
2023-01-26T05:58:46.444Z,15.00
2023-01-26T06:01:17.824Z,15.10
2023-01-26T06:03:48.439Z,15.10
2023-01-26T06:06:15.435Z,15.00
2023-01-26T06:08:48.148Z,15.00
2023-01-26T06:11:19.241Z,15.00
2023-01-26T06:13:48.662Z,14.90
2023-01-26T06:16:20.031Z,14.90
2023-01-26T06:18:53.607Z,14.90
2023-01-26T06:21:23.623Z,14.80
2023-01-26T06:23:52.644Z,14.80
2023-01-26T06:26:24.142Z,14.80
2023-01-26T06:29:01.768Z,14.80
2023-01-26T06:31:30.208Z,14.80
2023-01-26T06:33:59.127Z,14.80
2023-01-26T06:36:28.922Z,14.70
2023-01-26T06:39:00.984Z,14.80
2023-01-26T06:41:28.705Z,14.70
2023-01-26T06:44:00.186Z,14.70
2023-01-26T06:46:31.773Z,14.70
2023-01-26T06:49:02.505Z,14.70
2023-01-26T06:51:53.763Z,14.70
2023-01-26T06:54:24.939Z,14.70
2023-01-26T06:57:03.414Z,14.60
2023-01-26T06:59:36.181Z,14.60
2023-01-26T07:02:15.597Z,14.60
2023-01-26T07:04:50.957Z,14.70
2023-01-26T07:07:22.795Z,14.60
2023-01-26T07:09:52.102Z,14.60
2023-01-26T07:12:23.137Z,14.60
2023-01-26T07:14:56.376Z,14.60
2023-01-26T07:17:26.699Z,14.70
2023-01-26T07:19:54.813Z,14.60
2023-01-26T07:22:23.596Z,14.60
2023-01-26T07:24:55.621Z,14.70
2023-01-26T07:30:19.963Z,14.60
2023-01-26T07:32:48.991Z,14.60
2023-01-26T07:35:28.520Z,14.60
2023-01-26T07:38:01.347Z,14.60
2023-01-26T07:40:31.706Z,14.60
2023-01-26T07:43:01.735Z,14.60
2023-01-26T07:45:33.240Z,14.60
2023-01-26T07:48:06.791Z,14.50
2023-01-26T07:50:38.307Z,14.50
2023-01-26T07:53:11.648Z,14.50
2023-01-26T07:55:40.129Z,14.50
2023-01-26T07:58:08.024Z,14.50
2023-01-26T08:00:37.137Z,14.50
2023-01-26T08:03:12.084Z,14.50
2023-01-26T08:05:42.493Z,14.50
2023-01-26T08:08:12.136Z,14.50
2023-01-26T08:10:41.745Z,14.50
2023-01-26T08:13:13.057Z,14.50
2023-01-26T08:15:44.799Z,14.50
2023-01-26T08:18:13.000Z,14.50
2023-01-26T08:20:43.609Z,14.40
2023-01-26T08:23:11.849Z,14.50
2023-01-26T08:25:40.893Z,14.50
2023-01-26T08:28:12.031Z,14.50
2023-01-26T08:30:43.025Z,14.50
2023-01-26T08:33:13.013Z,14.40
2023-01-26T08:35:42.127Z,14.40
2023-01-26T08:38:09.461Z,14.40
2023-01-26T08:40:39.636Z,14.40
2023-01-26T08:43:10.067Z,14.40
2023-01-26T08:45:40.131Z,14.40
2023-01-26T08:48:07.669Z,14.40
2023-01-26T08:50:36.983Z,14.40
2023-01-26T08:53:07.290Z,14.50
2023-01-26T08:55:38.917Z,14.40
2023-01-26T08:58:08.212Z,14.40
2023-01-26T09:00:37.471Z,14.40
2023-01-26T09:03:08.236Z,14.40
2023-01-26T09:05:38.946Z,14.40
2023-01-26T09:08:09.451Z,14.40
2023-01-26T09:10:41.852Z,14.40
2023-01-26T09:13:12.793Z,14.40
2023-01-26T09:15:45.307Z,14.40
2023-01-26T09:18:16.315Z,14.40
2023-01-26T09:20:49.756Z,14.40
2023-01-26T09:23:22.956Z,14.40
2023-01-26T09:25:55.771Z,14.40
2023-01-26T09:28:25.802Z,14.40
2023-01-26T09:30:57.050Z,14.40
2023-01-26T09:33:27.625Z,14.40
2023-01-26T09:36:05.398Z,14.40
2023-01-26T09:38:41.244Z,14.40
2023-01-26T09:41:42.603Z,14.30
2023-01-26T09:44:17.745Z,14.30
2023-01-26T09:47:15.168Z,14.30
2023-01-26T09:50:19.362Z,14.40
2023-01-26T09:53:36.855Z,14.30
2023-01-26T09:56:08.921Z,14.40
2023-01-26T09:58:43.039Z,14.30
2023-01-26T10:01:35.342Z,14.30
2023-01-26T10:04:24.701Z,14.40
2023-01-26T10:06:55.535Z,14.30
2023-01-26T10:09:37.569Z,14.30
2023-01-26T10:12:33.724Z,14.30
2023-01-26T10:15:35.983Z,14.30
2023-01-26T10:18:20.342Z,14.40
2023-01-26T10:20:58.841Z,14.30
2023-01-26T10:23:40.813Z,14.30
2023-01-26T10:26:21.971Z,14.30
2023-01-26T10:28:53.566Z,14.40
2023-01-26T10:31:35.890Z,14.40
2023-01-26T10:34:44.189Z,14.40
2023-01-26T10:37:29.528Z,14.40
2023-01-26T10:40:12.561Z,14.40
2023-01-26T10:42:55.402Z,14.30
2023-01-26T10:45:42.168Z,14.30
2023-01-26T10:48:21.889Z,14.30
2023-01-26T10:50:56.341Z,14.40
2023-01-26T10:53:26.634Z,14.30
2023-01-26T10:56:19.595Z,14.30
2023-01-26T10:58:55.509Z,14.30
2023-01-26T11:01:37.752Z,14.30
2023-01-26T11:04:15.182Z,14.30
2023-01-26T11:06:46.062Z,14.30
2023-01-26T11:09:28.928Z,14.30
2023-01-26T11:12:06.613Z,14.40
2023-01-26T11:14:38.392Z,14.40
2023-01-26T11:17:43.188Z,14.30
2023-01-26T11:20:39.951Z,14.40
2023-01-26T11:23:23.454Z,14.30
2023-01-26T11:26:05.442Z,14.30
2023-01-26T11:29:17.888Z,14.30
2023-01-26T11:32:21.053Z,14.30
2023-01-26T11:35:27.427Z,14.30
2023-01-26T11:38:26.226Z,14.30
2023-01-26T11:41:15.247Z,14.30
2023-01-26T11:44:21.849Z,14.30
2023-01-26T11:47:23.588Z,14.30
2023-01-26T11:50:21.676Z,14.30
2023-01-26T11:52:59.327Z,14.30
2023-01-26T11:55:54.402Z,14.30
2023-01-26T11:58:36.538Z,14.30
2023-01-26T12:01:31.129Z,14.30
2023-01-26T12:04:02.706Z,14.40
2023-01-26T12:09:50.644Z,14.30
2023-01-26T12:12:33.823Z,14.30
2023-01-26T12:15:27.940Z,14.40
2023-01-26T12:18:15.043Z,14.40
2023-01-26T12:21:09.249Z,14.40
2023-01-26T12:24:09.341Z,14.40
2023-01-26T12:26:47.005Z,14.30
2023-01-26T12:30:01.601Z,14.30
2023-01-26T12:32:33.545Z,14.40
2023-01-26T12:35:05.891Z,14.40
2023-01-26T12:38:17.301Z,14.40
2023-01-26T12:41:16.467Z,14.40
2023-01-26T12:44:14.058Z,14.30
2023-01-26T12:46:50.194Z,14.30
2023-01-26T12:49:58.201Z,14.40
2023-01-26T12:52:53.153Z,14.40
2023-01-26T12:55:35.118Z,14.40
2023-01-26T12:58:12.962Z,14.30
2023-01-26T13:00:53.017Z,14.30
2023-01-26T13:03:25.495Z,14.30
2023-01-26T13:06:11.043Z,14.40
2023-01-26T13:08:53.992Z,14.40
2023-01-26T13:11:49.206Z,14.40
2023-01-26T13:14:41.314Z,14.40
2023-01-26T13:17:28.521Z,14.40
2023-01-26T13:20:00.908Z,14.40
2023-01-26T13:22:58.418Z,14.40
2023-01-26T13:25:35.818Z,14.40
2023-01-26T13:28:17.327Z,14.40
2023-01-26T13:30:49.302Z,14.40
2023-01-26T13:33:26.851Z,14.40
2023-01-26T13:35:58.531Z,14.40
2023-01-26T13:38:49.774Z,14.40
2023-01-26T13:41:25.168Z,14.40
2023-01-26T13:44:10.136Z,14.40
2023-01-26T13:46:51.629Z,14.40
2023-01-26T13:49:42.885Z,14.40
2023-01-26T13:52:35.316Z,14.40
2023-01-26T13:55:15.996Z,14.40
2023-01-26T13:57:46.496Z,14.40
2023-01-26T14:00:14.804Z,14.40
2023-01-26T14:02:49.948Z,14.40
2023-01-26T14:05:25.525Z,14.40
2023-01-26T14:07:55.816Z,14.40
2023-01-26T14:10:26.625Z,14.40
2023-01-26T14:13:00.844Z,14.50
2023-01-26T14:15:33.187Z,14.40
2023-01-26T14:18:05.590Z,14.40
2023-01-26T14:20:38.834Z,14.50
2023-01-26T14:26:21.123Z,14.50
2023-01-26T14:28:48.167Z,14.50
2023-01-26T14:31:28.791Z,14.40
2023-01-26T14:34:04.560Z,14.50
2023-01-26T14:36:41.679Z,14.50
2023-01-26T14:39:25.388Z,14.50
2023-01-26T14:42:01.765Z,14.50
2023-01-26T14:44:36.941Z,14.50
2023-01-26T14:47:30.243Z,14.50
2023-01-26T14:50:08.391Z,14.50
2023-01-26T14:52:52.295Z,14.50
2023-01-26T14:55:36.296Z,14.50
2023-01-26T14:58:13.230Z,14.50
2023-01-26T15:00:47.490Z,14.50
2023-01-26T15:03:39.708Z,14.50
2023-01-26T15:06:20.298Z,14.50
2023-01-26T15:09:17.072Z,14.50
2023-01-26T15:12:27.055Z,14.50
2023-01-26T15:15:01.443Z,14.50
2023-01-26T15:17:41.788Z,14.50
2023-01-26T15:20:27.324Z,14.50
2023-01-26T15:22:57.686Z,14.50
2023-01-26T15:25:33.676Z,14.50
2023-01-26T15:28:09.159Z,14.50
2023-01-26T15:34:07.785Z,14.50
2023-01-26T15:36:47.591Z,14.50
2023-01-26T15:39:22.692Z,14.50
2023-01-26T15:42:34.279Z,14.50
2023-01-26T15:45:03.770Z,14.50
2023-01-26T15:47:35.474Z,14.50
2023-01-26T15:50:18.946Z,14.50
2023-01-26T15:52:56.418Z,14.50
2023-01-26T15:55:35.467Z,14.50
2023-01-26T15:58:06.745Z,14.50
2023-01-26T16:00:36.664Z,14.50
2023-01-26T16:03:24.803Z,14.50
2023-01-26T16:05:55.978Z,14.50
2023-01-26T16:08:24.394Z,14.50
2023-01-26T16:10:59.895Z,14.50
2023-01-26T16:13:31.135Z,14.50
2023-01-26T16:16:04.289Z,14.50
2023-01-26T16:18:34.785Z,14.50
2023-01-26T16:23:52.608Z,14.50
2023-01-26T16:26:22.403Z,14.50
2023-01-26T16:28:49.519Z,14.50
2023-01-26T16:31:25.857Z,14.50
2023-01-26T16:33:57.918Z,14.50
2023-01-26T16:36:31.271Z,14.50
2023-01-26T16:39:01.465Z,14.50
2023-01-26T16:41:35.089Z,14.50
2023-01-26T16:44:03.656Z,14.50
2023-01-26T16:46:34.726Z,14.50
2023-01-26T16:49:04.234Z,14.60
2023-01-26T16:51:44.923Z,14.50
2023-01-26T16:56:58.041Z,14.50
2023-01-26T16:59:26.184Z,14.50
2023-01-26T17:01:54.807Z,14.50
2023-01-26T17:04:26.045Z,14.50
2023-01-26T17:06:55.699Z,14.50
2023-01-26T17:09:27.330Z,14.50
2023-01-26T17:11:58.517Z,14.50
2023-01-26T17:14:28.304Z,14.50
2023-01-26T17:16:58.422Z,14.50
2023-01-26T17:19:30.348Z,14.50
2023-01-26T17:22:01.667Z,14.50
2023-01-26T17:24:36.245Z,14.50
2023-01-26T17:27:07.783Z,14.50
2023-01-26T17:29:37.923Z,14.50
2023-01-26T17:32:08.647Z,14.50
2023-01-26T17:34:38.938Z,14.50
2023-01-26T17:37:08.056Z,14.40
2023-01-26T17:39:36.639Z,14.50
2023-01-26T17:42:08.138Z,14.50
2023-01-26T17:44:37.905Z,14.40
2023-01-26T17:47:07.146Z,14.50
2023-01-26T17:49:39.746Z,14.40
2023-01-26T17:52:21.279Z,14.40
2023-01-26T17:54:52.945Z,14.40
2023-01-26T17:57:24.692Z,14.40
2023-01-26T17:59:55.329Z,14.40
2023-01-26T18:02:25.379Z,14.40
2023-01-26T18:04:55.997Z,14.40
2023-01-26T18:07:24.854Z,14.40
2023-01-26T18:09:55.150Z,14.40
2023-01-26T18:12:26.181Z,14.40
2023-01-26T18:14:57.929Z,14.40
2023-01-26T18:17:28.454Z,14.40
2023-01-26T18:19:57.216Z,14.40
2023-01-26T18:22:28.880Z,14.40
2023-01-26T18:24:55.660Z,14.40
2023-01-26T18:27:26.979Z,14.40
2023-01-26T18:30:04.569Z,14.30
2023-01-26T18:32:34.781Z,14.40
2023-01-26T18:35:04.327Z,14.40
2023-01-26T18:37:35.842Z,14.40
2023-01-26T18:40:24.178Z,14.40
2023-01-26T18:42:57.024Z,14.40
2023-01-26T18:45:27.025Z,14.40
2023-01-26T18:47:55.298Z,14.40
2023-01-26T18:50:27.123Z,14.30
2023-01-26T18:52:58.450Z,14.40
2023-01-26T18:55:26.713Z,14.40
2023-01-26T18:58:15.061Z,14.40
2023-01-26T19:03:26.964Z,14.40
2023-01-26T19:05:58.384Z,14.40
2023-01-26T19:08:47.839Z,14.40
2023-01-26T19:11:16.193Z,14.40
2023-01-26T19:13:48.928Z,14.40
2023-01-26T19:16:20.413Z,14.40
2023-01-26T19:18:50.893Z,14.40
2023-01-26T19:21:37.386Z,14.30
2023-01-26T19:24:08.254Z,14.40
2023-01-26T19:26:35.296Z,14.40
2023-01-26T19:29:04.009Z,14.30
2023-01-26T19:31:35.304Z,14.30
2023-01-26T19:34:11.102Z,14.40
2023-01-26T19:36:39.268Z,14.40
2023-01-26T19:39:24.630Z,14.40
2023-01-26T19:41:55.917Z,14.40
2023-01-26T19:44:27.431Z,14.40
2023-01-26T19:46:59.665Z,14.40
2023-01-26T19:49:30.579Z,14.40
2023-01-26T19:52:05.019Z,14.40
2023-01-26T19:54:34.673Z,14.40
2023-01-26T19:57:02.844Z,14.40
2023-01-26T19:59:31.321Z,14.40
2023-01-26T20:02:02.820Z,14.40
2023-01-26T20:07:21.404Z,14.40
2023-01-26T20:09:50.588Z,14.40
2023-01-26T20:12:27.649Z,14.40
2023-01-26T20:15:00.519Z,14.40
2023-01-26T20:17:32.755Z,14.40
2023-01-26T20:20:05.369Z,14.40
2023-01-26T20:22:35.287Z,14.40
2023-01-26T20:25:04.246Z,14.40
2023-01-26T20:27:37.641Z,14.40
2023-01-26T20:30:07.667Z,14.40
2023-01-26T20:32:39.186Z,14.40
2023-01-26T20:35:14.421Z,14.40
2023-01-26T20:37:42.712Z,14.40
2023-01-26T20:40:15.775Z,14.30
2023-01-26T20:42:45.115Z,14.30
2023-01-26T20:45:17.622Z,14.40
2023-01-26T20:47:49.124Z,14.40
2023-01-26T20:50:20.232Z,14.40
2023-01-26T20:52:52.147Z,14.40
2023-01-26T20:55:22.205Z,14.30
2023-01-26T20:57:55.328Z,14.30
2023-01-26T21:00:23.833Z,14.40
2023-01-26T21:02:52.779Z,14.40
2023-01-26T21:05:23.659Z,14.40
2023-01-26T21:07:55.373Z,14.40
2023-01-26T21:10:27.188Z,14.40
2023-01-26T21:12:58.997Z,14.40
2023-01-26T21:15:29.692Z,14.40
2023-01-26T21:17:59.604Z,14.40
2023-01-26T21:20:27.468Z,14.40
2023-01-26T21:23:00.706Z,14.40
2023-01-26T21:25:32.903Z,14.40
2023-01-26T21:28:03.819Z,14.40
2023-01-26T21:30:35.544Z,14.30
2023-01-26T21:36:10.321Z,14.40
2023-01-26T21:38:42.941Z,14.30
2023-01-26T21:41:45.072Z,14.40
2023-01-26T21:44:20.858Z,14.40
2023-01-26T21:46:54.111Z,14.40
2023-01-26T21:49:22.967Z,14.40
2023-01-26T21:52:15.070Z,14.40
2023-01-26T21:54:45.765Z,14.40
2023-01-26T21:57:46.901Z,14.40
2023-01-26T22:00:17.362Z,14.40
2023-01-26T22:02:48.031Z,14.40
2023-01-26T22:05:22.113Z,14.40
2023-01-26T22:07:49.061Z,14.40
2023-01-26T22:10:20.422Z,14.40
2023-01-26T22:12:50.411Z,14.40
2023-01-26T22:15:20.845Z,14.40
2023-01-26T22:17:49.981Z,14.40
2023-01-26T22:20:21.775Z,14.40
2023-01-26T22:22:53.243Z,14.40
2023-01-26T22:25:22.549Z,14.40
2023-01-26T22:27:50.519Z,14.40
2023-01-26T22:30:18.716Z,14.40
2023-01-26T22:32:46.992Z,14.40
2023-01-26T22:35:19.030Z,14.40
2023-01-26T22:37:48.404Z,14.40
2023-01-26T22:40:17.156Z,14.40
2023-01-26T22:42:48.563Z,14.40
2023-01-26T22:45:19.679Z,14.40
2023-01-26T22:47:53.964Z,14.40
2023-01-26T22:50:24.424Z,14.40
2023-01-26T22:52:54.512Z,14.40
2023-01-26T22:55:25.165Z,14.40
2023-01-26T22:57:55.620Z,14.40
2023-01-26T23:00:24.768Z,14.40
2023-01-26T23:02:56.417Z,14.40
2023-01-26T23:05:27.697Z,14.40
2023-01-26T23:07:58.137Z,14.40
2023-01-26T23:10:30.653Z,14.40
2023-01-26T23:12:58.911Z,14.40
2023-01-26T23:15:31.000Z,14.40
2023-01-26T23:18:02.968Z,14.40
2023-01-26T23:20:30.751Z,14.40
2023-01-26T23:23:00.888Z,14.40
2023-01-26T23:25:50.013Z,14.30
2023-01-26T23:28:27.054Z,14.40
2023-01-26T23:30:58.234Z,14.40
2023-01-26T23:33:29.034Z,14.40
2023-01-26T23:36:05.464Z,14.30
2023-01-26T23:38:36.316Z,14.40
2023-01-26T23:41:11.054Z,14.30
2023-01-26T23:43:40.571Z,14.40
2023-01-26T23:46:12.662Z,14.40
2023-01-26T23:48:43.384Z,14.40
2023-01-26T23:51:13.627Z,14.40
2023-01-26T23:53:43.097Z,14.40
2023-01-26T23:56:16.003Z,14.40
2023-01-26T23:58:44.095Z,14.40
